sensor_id;sensor_type;location;lat;lon;timestamp;P1;durP1;ratioP1;P2;durP2;ratioP2
22234;SDS011;11286;45.596;5.284;2023-02-28T00:00:27;14.80;;;10.75;;
22234;SDS011;11286;45.596;5.284;2023-02-28T00:02:53;14.85;;;10.90;;
22234;SDS011;11286;45.596;5.284;2023-02-28T00:05:20;19.02;;;11.15;;
22234;SDS011;11286;45.596;5.284;2023-02-28T00:07:47;17.27;;;11.73;;
22234;SDS011;11286;45.596;5.284;2023-02-28T00:10:15;16.45;;;11.75;;
22234;SDS011;11286;45.596;5.284;2023-02-28T00:12:45;14.52;;;10.75;;
22234;SDS011;11286;45.596;5.284;2023-02-28T00:15:12;14.50;;;10.00;;
22234;SDS011;11286;45.596;5.284;2023-02-28T00:17:37;14.43;;;11.82;;
22234;SDS011;11286;45.596;5.284;2023-02-28T00:20:04;14.80;;;12.02;;
22234;SDS011;11286;45.596;5.284;2023-02-28T00:22:41;19.08;;;14.80;;
22234;SDS011;11286;45.596;5.284;2023-02-28T00:25:09;16.35;;;11.75;;
22234;SDS011;11286;45.596;5.284;2023-02-28T00:27:38;13.52;;;11.35;;
22234;SDS011;11286;45.596;5.284;2023-02-28T00:30:05;15.25;;;11.30;;
22234;SDS011;11286;45.596;5.284;2023-02-28T00:32:33;15.30;;;11.68;;
22234;SDS011;11286;45.596;5.284;2023-02-28T00:34:59;17.10;;;12.65;;
22234;SDS011;11286;45.596;5.284;2023-02-28T00:37:25;13.98;;;11.10;;
22234;SDS011;11286;45.596;5.284;2023-02-28T00:39:50;17.20;;;12.95;;
22234;SDS011;11286;45.596;5.284;2023-02-28T00:42:16;16.77;;;12.48;;
22234;SDS011;11286;45.596;5.284;2023-02-28T00:44:42;18.70;;;15.40;;
22234;SDS011;11286;45.596;5.284;2023-02-28T00:47:07;20.38;;;16.48;;
22234;SDS011;11286;45.596;5.284;2023-02-28T00:49:33;15.45;;;13.68;;
22234;SDS011;11286;45.596;5.284;2023-02-28T00:51:59;16.55;;;13.02;;
22234;SDS011;11286;45.596;5.284;2023-02-28T00:54:24;13.32;;;10.93;;
22234;SDS011;11286;45.596;5.284;2023-02-28T00:56:50;16.13;;;11.20;;
22234;SDS011;11286;45.596;5.284;2023-02-28T00:59:16;13.73;;;11.10;;
22234;SDS011;11286;45.596;5.284;2023-02-28T01:01:42;12.32;;;10.90;;
22234;SDS011;11286;45.596;5.284;2023-02-28T01:04:09;14.32;;;11.00;;
22234;SDS011;11286;45.596;5.284;2023-02-28T01:06:34;13.02;;;10.85;;
22234;SDS011;11286;45.596;5.284;2023-02-28T01:09:01;13.88;;;11.02;;
22234;SDS011;11286;45.596;5.284;2023-02-28T01:11:28;12.45;;;10.63;;
22234;SDS011;11286;45.596;5.284;2023-02-28T01:13:54;12.43;;;10.55;;
22234;SDS011;11286;45.596;5.284;2023-02-28T01:16:20;14.15;;;11.27;;
22234;SDS011;11286;45.596;5.284;2023-02-28T01:18:45;12.23;;;9.63;;
22234;SDS011;11286;45.596;5.284;2023-02-28T01:21:12;12.70;;;10.88;;
22234;SDS011;11286;45.596;5.284;2023-02-28T01:23:40;11.85;;;10.05;;
22234;SDS011;11286;45.596;5.284;2023-02-28T01:28:39;9.98;;;7.93;;
22234;SDS011;11286;45.596;5.284;2023-02-28T01:31:07;8.95;;;8.05;;
22234;SDS011;11286;45.596;5.284;2023-02-28T01:33:33;12.45;;;10.32;;
22234;SDS011;11286;45.596;5.284;2023-02-28T01:36:00;13.55;;;10.82;;
22234;SDS011;11286;45.596;5.284;2023-02-28T01:38:46;13.07;;;10.60;;
22234;SDS011;11286;45.596;5.284;2023-02-28T01:41:15;12.40;;;10.27;;
22234;SDS011;11286;45.596;5.284;2023-02-28T01:46:10;10.38;;;7.80;;
22234;SDS011;11286;45.596;5.284;2023-02-28T01:48:38;8.57;;;7.65;;
22234;SDS011;11286;45.596;5.284;2023-02-28T01:51:12;11.48;;;7.95;;
22234;SDS011;11286;45.596;5.284;2023-02-28T01:53:47;10.35;;;7.95;;
22234;SDS011;11286;45.596;5.284;2023-02-28T01:56:17;10.10;;;7.68;;
22234;SDS011;11286;45.596;5.284;2023-02-28T01:58:50;8.40;;;7.57;;
22234;SDS011;11286;45.596;5.284;2023-02-28T02:01:18;10.40;;;8.13;;
22234;SDS011;11286;45.596;5.284;2023-02-28T02:03:51;10.13;;;8.13;;
22234;SDS011;11286;45.596;5.284;2023-02-28T02:06:23;8.55;;;7.45;;
22234;SDS011;11286;45.596;5.284;2023-02-28T02:08:52;8.85;;;7.53;;
22234;SDS011;11286;45.596;5.284;2023-02-28T02:11:19;10.38;;;8.07;;
22234;SDS011;11286;45.596;5.284;2023-02-28T02:46:41;9.57;;;8.25;;
22234;SDS011;11286;45.596;5.284;2023-02-28T02:49:10;8.43;;;7.05;;
22234;SDS011;11286;45.596;5.284;2023-02-28T02:51:42;10.32;;;7.90;;
22234;SDS011;11286;45.596;5.284;2023-02-28T02:54:31;9.43;;;7.95;;
22234;SDS011;11286;45.596;5.284;2023-02-28T02:56:58;8.93;;;8.02;;
22234;SDS011;11286;45.596;5.284;2023-02-28T02:59:28;7.97;;;7.10;;
22234;SDS011;11286;45.596;5.284;2023-02-28T03:01:56;10.05;;;8.00;;
22234;SDS011;11286;45.596;5.284;2023-02-28T03:04:30;11.70;;;8.23;;
22234;SDS011;11286;45.596;5.284;2023-02-28T03:06:58;11.23;;;8.43;;
22234;SDS011;11286;45.596;5.284;2023-02-28T03:09:25;10.18;;;8.25;;
22234;SDS011;11286;45.596;5.284;2023-02-28T03:11:52;10.23;;;7.70;;
22234;SDS011;11286;45.596;5.284;2023-02-28T03:14:39;9.88;;;7.90;;
22234;SDS011;11286;45.596;5.284;2023-02-28T03:31:15;12.52;;;7.90;;
22234;SDS011;11286;45.596;5.284;2023-02-28T03:33:54;10.18;;;8.05;;
22234;SDS011;11286;45.596;5.284;2023-02-28T03:36:30;10.93;;;8.30;;
22234;SDS011;11286;45.596;5.284;2023-02-28T03:39:05;9.25;;;8.02;;
22234;SDS011;11286;45.596;5.284;2023-02-28T03:41:38;9.93;;;7.80;;
22234;SDS011;11286;45.596;5.284;2023-02-28T03:44:36;10.02;;;8.10;;
22234;SDS011;11286;45.596;5.284;2023-02-28T03:47:08;11.07;;;8.32;;
22234;SDS011;11286;45.596;5.284;2023-02-28T03:49:44;10.15;;;7.93;;
22234;SDS011;11286;45.596;5.284;2023-02-28T03:52:14;10.73;;;8.35;;
22234;SDS011;11286;45.596;5.284;2023-02-28T03:54:48;9.27;;;7.70;;
22234;SDS011;11286;45.596;5.284;2023-02-28T04:03:03;14.25;;;8.65;;
22234;SDS011;11286;45.596;5.284;2023-02-28T04:05:29;9.82;;;8.20;;
22234;SDS011;11286;45.596;5.284;2023-02-28T04:08:05;10.38;;;7.97;;
22234;SDS011;11286;45.596;5.284;2023-02-28T04:10:32;8.93;;;7.47;;
22234;SDS011;11286;45.596;5.284;2023-02-28T04:12:58;10.15;;;7.78;;
22234;SDS011;11286;45.596;5.284;2023-02-28T04:15:24;13.50;;;7.90;;
22234;SDS011;11286;45.596;5.284;2023-02-28T04:17:49;10.20;;;8.05;;
22234;SDS011;11286;45.596;5.284;2023-02-28T04:20:15;10.48;;;8.27;;
22234;SDS011;11286;45.596;5.284;2023-02-28T04:22:41;8.85;;;7.93;;
22234;SDS011;11286;45.596;5.284;2023-02-28T04:25:07;10.90;;;7.75;;
22234;SDS011;11286;45.596;5.284;2023-02-28T04:27:33;9.80;;;8.23;;
22234;SDS011;11286;45.596;5.284;2023-02-28T04:29:59;10.57;;;8.38;;
22234;SDS011;11286;45.596;5.284;2023-02-28T04:32:25;10.60;;;8.25;;
22234;SDS011;11286;45.596;5.284;2023-02-28T04:34:50;9.15;;;8.18;;
22234;SDS011;11286;45.596;5.284;2023-02-28T04:37:16;13.23;;;8.25;;
22234;SDS011;11286;45.596;5.284;2023-02-28T04:39:42;8.82;;;7.65;;
22234;SDS011;11286;45.596;5.284;2023-02-28T04:42:07;9.50;;;8.20;;
22234;SDS011;11286;45.596;5.284;2023-02-28T04:44:33;9.48;;;7.45;;
22234;SDS011;11286;45.596;5.284;2023-02-28T04:46:59;9.85;;;7.88;;
22234;SDS011;11286;45.596;5.284;2023-02-28T04:49:24;9.07;;;7.25;;
22234;SDS011;11286;45.596;5.284;2023-02-28T04:51:50;10.20;;;7.88;;
22234;SDS011;11286;45.596;5.284;2023-02-28T04:54:17;10.77;;;7.80;;
22234;SDS011;11286;45.596;5.284;2023-02-28T04:56:43;8.65;;;7.75;;
22234;SDS011;11286;45.596;5.284;2023-02-28T04:59:09;8.63;;;7.13;;
22234;SDS011;11286;45.596;5.284;2023-02-28T05:01:35;9.07;;;7.47;;
22234;SDS011;11286;45.596;5.284;2023-02-28T05:04:01;8.93;;;7.20;;
22234;SDS011;11286;45.596;5.284;2023-02-28T05:06:29;9.15;;;7.20;;
22234;SDS011;11286;45.596;5.284;2023-02-28T05:08:57;8.65;;;7.22;;
22234;SDS011;11286;45.596;5.284;2023-02-28T05:11:24;11.10;;;7.70;;
22234;SDS011;11286;45.596;5.284;2023-02-28T05:13:58;8.88;;;7.22;;
22234;SDS011;11286;45.596;5.284;2023-02-28T05:16:24;9.02;;;6.72;;
22234;SDS011;11286;45.596;5.284;2023-02-28T05:18:49;8.38;;;7.05;;
22234;SDS011;11286;45.596;5.284;2023-02-28T05:21:21;9.52;;;7.30;;
22234;SDS011;11286;45.596;5.284;2023-02-28T05:23:54;8.55;;;7.32;;
22234;SDS011;11286;45.596;5.284;2023-02-28T05:26:20;8.68;;;7.50;;
22234;SDS011;11286;45.596;5.284;2023-02-28T05:28:46;9.70;;;7.53;;
22234;SDS011;11286;45.596;5.284;2023-02-28T05:31:12;10.40;;;7.85;;
22234;SDS011;11286;45.596;5.284;2023-02-28T05:33:39;10.27;;;7.47;;
22234;SDS011;11286;45.596;5.284;2023-02-28T05:36:05;9.77;;;7.35;;
22234;SDS011;11286;45.596;5.284;2023-02-28T05:38:31;9.13;;;7.45;;
22234;SDS011;11286;45.596;5.284;2023-02-28T05:40:57;9.23;;;7.30;;
22234;SDS011;11286;45.596;5.284;2023-02-28T05:43:22;10.35;;;7.20;;
22234;SDS011;11286;45.596;5.284;2023-02-28T05:45:48;8.50;;;7.13;;
22234;SDS011;11286;45.596;5.284;2023-02-28T05:48:14;9.43;;;7.25;;
22234;SDS011;11286;45.596;5.284;2023-02-28T05:50:40;11.15;;;7.75;;
22234;SDS011;11286;45.596;5.284;2023-02-28T05:53:07;10.20;;;8.10;;
22234;SDS011;11286;45.596;5.284;2023-02-28T05:55:33;10.55;;;7.57;;
22234;SDS011;11286;45.596;5.284;2023-02-28T05:58:00;13.25;;;8.75;;
22234;SDS011;11286;45.596;5.284;2023-02-28T06:00:26;17.45;;;10.73;;
22234;SDS011;11286;45.596;5.284;2023-02-28T06:02:52;9.88;;;7.75;;
22234;SDS011;11286;45.596;5.284;2023-02-28T06:05:21;9.80;;;7.22;;
22234;SDS011;11286;45.596;5.284;2023-02-28T06:07:47;21.15;;;14.10;;
22234;SDS011;11286;45.596;5.284;2023-02-28T06:10:13;9.55;;;7.22;;
22234;SDS011;11286;45.596;5.284;2023-02-28T06:12:39;11.93;;;7.93;;
22234;SDS011;11286;45.596;5.284;2023-02-28T06:15:06;8.07;;;7.03;;
22234;SDS011;11286;45.596;5.284;2023-02-28T06:17:36;11.40;;;9.05;;
22234;SDS011;11286;45.596;5.284;2023-02-28T06:20:03;13.13;;;10.00;;
22234;SDS011;11286;45.596;5.284;2023-02-28T06:22:29;10.25;;;8.27;;
22234;SDS011;11286;45.596;5.284;2023-02-28T06:24:55;8.95;;;7.78;;
22234;SDS011;11286;45.596;5.284;2023-02-28T06:27:22;14.35;;;9.02;;
22234;SDS011;11286;45.596;5.284;2023-02-28T06:29:47;15.93;;;11.05;;
22234;SDS011;11286;45.596;5.284;2023-02-28T06:32:13;16.15;;;11.50;;
22234;SDS011;11286;45.596;5.284;2023-02-28T06:34:39;13.63;;;8.35;;
22234;SDS011;11286;45.596;5.284;2023-02-28T06:37:04;11.35;;;7.88;;
22234;SDS011;11286;45.596;5.284;2023-02-28T06:39:30;10.07;;;7.72;;
22234;SDS011;11286;45.596;5.284;2023-02-28T06:41:56;11.35;;;8.05;;
22234;SDS011;11286;45.596;5.284;2023-02-28T06:44:22;9.23;;;7.60;;
22234;SDS011;11286;45.596;5.284;2023-02-28T06:46:48;9.05;;;7.22;;
22234;SDS011;11286;45.596;5.284;2023-02-28T06:49:14;8.60;;;7.43;;
22234;SDS011;11286;45.596;5.284;2023-02-28T06:51:41;11.48;;;7.22;;
22234;SDS011;11286;45.596;5.284;2023-02-28T06:54:09;12.25;;;7.25;;
22234;SDS011;11286;45.596;5.284;2023-02-28T06:56:36;9.57;;;6.40;;
22234;SDS011;11286;45.596;5.284;2023-02-28T06:59:02;8.63;;;6.43;;
22234;SDS011;11286;45.596;5.284;2023-02-28T07:01:28;7.82;;;6.80;;
22234;SDS011;11286;45.596;5.284;2023-02-28T07:03:54;9.32;;;6.80;;
22234;SDS011;11286;45.596;5.284;2023-02-28T07:06:23;8.10;;;6.35;;
22234;SDS011;11286;45.596;5.284;2023-02-28T07:08:52;9.77;;;6.88;;
22234;SDS011;11286;45.596;5.284;2023-02-28T07:11:19;9.65;;;6.60;;
22234;SDS011;11286;45.596;5.284;2023-02-28T07:13:47;9.60;;;6.68;;
22234;SDS011;11286;45.596;5.284;2023-02-28T07:16:13;7.88;;;6.30;;
22234;SDS011;11286;45.596;5.284;2023-02-28T07:18:39;8.25;;;6.78;;
22234;SDS011;11286;45.596;5.284;2023-02-28T07:21:05;7.22;;;5.93;;
22234;SDS011;11286;45.596;5.284;2023-02-28T07:23:33;8.55;;;6.78;;
22234;SDS011;11286;45.596;5.284;2023-02-28T07:25:59;8.93;;;6.53;;
22234;SDS011;11286;45.596;5.284;2023-02-28T07:28:24;10.43;;;7.13;;
22234;SDS011;11286;45.596;5.284;2023-02-28T07:30:50;9.90;;;6.85;;
22234;SDS011;11286;45.596;5.284;2023-02-28T07:33:16;13.57;;;7.47;;
22234;SDS011;11286;45.596;5.284;2023-02-28T07:35:42;7.45;;;6.70;;
22234;SDS011;11286;45.596;5.284;2023-02-28T07:38:08;9.00;;;6.72;;
22234;SDS011;11286;45.596;5.284;2023-02-28T07:40:34;10.98;;;7.50;;
22234;SDS011;11286;45.596;5.284;2023-02-28T07:43:00;11.23;;;7.35;;
22234;SDS011;11286;45.596;5.284;2023-02-28T07:45:27;10.00;;;7.00;;
22234;SDS011;11286;45.596;5.284;2023-02-28T07:47:54;10.23;;;7.75;;
22234;SDS011;11286;45.596;5.284;2023-02-28T07:50:20;11.20;;;8.30;;
22234;SDS011;11286;45.596;5.284;2023-02-28T07:52:46;11.38;;;7.97;;
22234;SDS011;11286;45.596;5.284;2023-02-28T07:55:12;9.77;;;7.00;;
22234;SDS011;11286;45.596;5.284;2023-02-28T07:57:38;9.57;;;7.20;;
22234;SDS011;11286;45.596;5.284;2023-02-28T08:00:06;8.63;;;7.60;;
22234;SDS011;11286;45.596;5.284;2023-02-28T08:02:34;10.57;;;6.93;;
22234;SDS011;11286;45.596;5.284;2023-02-28T08:05:00;8.07;;;6.50;;
22234;SDS011;11286;45.596;5.284;2023-02-28T08:07:26;8.88;;;6.55;;
22234;SDS011;11286;45.596;5.284;2023-02-28T08:09:52;8.45;;;6.30;;
22234;SDS011;11286;45.596;5.284;2023-02-28T08:12:18;7.97;;;6.10;;
22234;SDS011;11286;45.596;5.284;2023-02-28T08:14:44;11.05;;;6.63;;
22234;SDS011;11286;45.596;5.284;2023-02-28T08:17:10;8.48;;;6.07;;
22234;SDS011;11286;45.596;5.284;2023-02-28T08:19:36;9.25;;;6.15;;
22234;SDS011;11286;45.596;5.284;2023-02-28T08:22:01;8.90;;;6.75;;
22234;SDS011;11286;45.596;5.284;2023-02-28T08:24:27;8.02;;;6.15;;
22234;SDS011;11286;45.596;5.284;2023-02-28T08:26:54;10.48;;;6.50;;
22234;SDS011;11286;45.596;5.284;2023-02-28T08:29:20;7.93;;;6.03;;
22234;SDS011;11286;45.596;5.284;2023-02-28T08:31:45;7.45;;;5.65;;
22234;SDS011;11286;45.596;5.284;2023-02-28T08:34:12;7.50;;;6.53;;
22234;SDS011;11286;45.596;5.284;2023-02-28T08:36:39;9.63;;;6.38;;
22234;SDS011;11286;45.596;5.284;2023-02-28T08:39:06;7.88;;;5.95;;
22234;SDS011;11286;45.596;5.284;2023-02-28T08:41:32;9.43;;;5.95;;
22234;SDS011;11286;45.596;5.284;2023-02-28T08:43:58;7.28;;;6.28;;
22234;SDS011;11286;45.596;5.284;2023-02-28T08:46:25;9.43;;;6.05;;
22234;SDS011;11286;45.596;5.284;2023-02-28T08:48:51;10.75;;;6.63;;
22234;SDS011;11286;45.596;5.284;2023-02-28T08:51:18;8.65;;;6.07;;
22234;SDS011;11286;45.596;5.284;2023-02-28T08:53:51;11.13;;;6.00;;
22234;SDS011;11286;45.596;5.284;2023-02-28T08:56:18;7.28;;;6.10;;
22234;SDS011;11286;45.596;5.284;2023-02-28T08:58:45;7.57;;;6.43;;
22234;SDS011;11286;45.596;5.284;2023-02-28T09:01:19;10.90;;;6.53;;
22234;SDS011;11286;45.596;5.284;2023-02-28T09:03:46;9.20;;;6.68;;
22234;SDS011;11286;45.596;5.284;2023-02-28T09:06:13;8.13;;;6.57;;
22234;SDS011;11286;45.596;5.284;2023-02-28T09:08:40;7.97;;;6.32;;
22234;SDS011;11286;45.596;5.284;2023-02-28T09:11:06;8.77;;;6.10;;
22234;SDS011;11286;45.596;5.284;2023-02-28T09:13:32;8.90;;;6.45;;
22234;SDS011;11286;45.596;5.284;2023-02-28T09:15:59;8.60;;;5.75;;
22234;SDS011;11286;45.596;5.284;2023-02-28T09:18:26;7.35;;;5.82;;
22234;SDS011;11286;45.596;5.284;2023-02-28T09:20:52;6.32;;;5.68;;
22234;SDS011;11286;45.596;5.284;2023-02-28T09:23:18;5.97;;;5.35;;
22234;SDS011;11286;45.596;5.284;2023-02-28T09:25:47;9.35;;;5.72;;
22234;SDS011;11286;45.596;5.284;2023-02-28T09:28:18;9.38;;;6.03;;
22234;SDS011;11286;45.596;5.284;2023-02-28T09:30:44;13.50;;;6.68;;
22234;SDS011;11286;45.596;5.284;2023-02-28T09:33:11;10.13;;;5.60;;
22234;SDS011;11286;45.596;5.284;2023-02-28T09:35:37;8.95;;;6.45;;
22234;SDS011;11286;45.596;5.284;2023-02-28T09:38:03;7.25;;;5.68;;
22234;SDS011;11286;45.596;5.284;2023-02-28T09:40:30;8.45;;;6.55;;
22234;SDS011;11286;45.596;5.284;2023-02-28T09:42:56;7.05;;;5.78;;
22234;SDS011;11286;45.596;5.284;2023-02-28T09:45:27;6.93;;;5.95;;
22234;SDS011;11286;45.596;5.284;2023-02-28T09:47:59;8.07;;;5.85;;
22234;SDS011;11286;45.596;5.284;2023-02-28T09:53:05;7.40;;;5.63;;
22234;SDS011;11286;45.596;5.284;2023-02-28T09:56:21;8.02;;;5.75;;
22234;SDS011;11286;45.596;5.284;2023-02-28T10:06:58;8.73;;;5.75;;
22234;SDS011;11286;45.596;5.284;2023-02-28T10:09:30;8.75;;;5.75;;
22234;SDS011;11286;45.596;5.284;2023-02-28T10:12:04;7.13;;;5.88;;
22234;SDS011;11286;45.596;5.284;2023-02-28T10:14:32;7.70;;;6.18;;
22234;SDS011;11286;45.596;5.284;2023-02-28T10:17:01;6.70;;;5.32;;
22234;SDS011;11286;45.596;5.284;2023-02-28T10:19:40;6.03;;;5.30;;
22234;SDS011;11286;45.596;5.284;2023-02-28T10:22:17;6.30;;;5.70;;
22234;SDS011;11286;45.596;5.284;2023-02-28T10:24:51;7.93;;;5.80;;
22234;SDS011;11286;45.596;5.284;2023-02-28T10:27:23;7.60;;;6.47;;
22234;SDS011;11286;45.596;5.284;2023-02-28T10:32:20;7.75;;;5.82;;
22234;SDS011;11286;45.596;5.284;2023-02-28T10:35:35;7.70;;;5.53;;
22234;SDS011;11286;45.596;5.284;2023-02-28T10:37:53;7.18;;;5.80;;
22234;SDS011;11286;45.596;5.284;2023-02-28T10:45:32;7.00;;;6.30;;
22234;SDS011;11286;45.596;5.284;2023-02-28T10:48:03;6.90;;;5.95;;
22234;SDS011;11286;45.596;5.284;2023-02-28T10:50:44;7.90;;;6.07;;
22234;SDS011;11286;45.596;5.284;2023-02-28T10:53:25;6.03;;;5.43;;
22234;SDS011;11286;45.596;5.284;2023-02-28T10:56:04;6.82;;;5.82;;
22234;SDS011;11286;45.596;5.284;2023-02-28T11:01:10;7.60;;;5.93;;
22234;SDS011;11286;45.596;5.284;2023-02-28T11:03:42;6.57;;;5.87;;
22234;SDS011;11286;45.596;5.284;2023-02-28T11:06:29;7.30;;;6.18;;
22234;SDS011;11286;45.596;5.284;2023-02-28T11:08:58;6.78;;;5.95;;
22234;SDS011;11286;45.596;5.284;2023-02-28T11:11:28;7.07;;;6.07;;
22234;SDS011;11286;45.596;5.284;2023-02-28T11:13:57;7.13;;;6.32;;
22234;SDS011;11286;45.596;5.284;2023-02-28T11:16:35;7.20;;;6.50;;
22234;SDS011;11286;45.596;5.284;2023-02-28T11:19:03;7.32;;;6.68;;
22234;SDS011;11286;45.596;5.284;2023-02-28T11:21:35;7.50;;;6.80;;
22234;SDS011;11286;45.596;5.284;2023-02-28T11:26:43;7.60;;;6.80;;
22234;SDS011;11286;45.596;5.284;2023-02-28T11:29:32;6.72;;;6.18;;
22234;SDS011;11286;45.596;5.284;2023-02-28T11:34:31;8.10;;;6.82;;
22234;SDS011;11286;45.596;5.284;2023-02-28T11:36:58;7.82;;;7.13;;
22234;SDS011;11286;45.596;5.284;2023-02-28T11:39:26;7.85;;;7.10;;
22234;SDS011;11286;45.596;5.284;2023-02-28T11:44:28;8.70;;;7.90;;
22234;SDS011;11286;45.596;5.284;2023-02-28T11:46:58;8.43;;;7.55;;
22234;SDS011;11286;45.596;5.284;2023-02-28T11:49:36;8.10;;;7.35;;
22234;SDS011;11286;45.596;5.284;2023-02-28T11:55:09;8.25;;;7.45;;
22234;SDS011;11286;45.596;5.284;2023-02-28T12:05:45;8.80;;;7.55;;
22234;SDS011;11286;45.596;5.284;2023-02-28T12:08:25;7.57;;;6.82;;
22234;SDS011;11286;45.596;5.284;2023-02-28T12:22:20;7.60;;;6.80;;
22234;SDS011;11286;45.596;5.284;2023-02-28T12:27:41;8.02;;;7.28;;
22234;SDS011;11286;45.596;5.284;2023-02-28T12:30:13;8.75;;;7.95;;
22234;SDS011;11286;45.596;5.284;2023-02-28T12:32:45;8.30;;;7.35;;
22234;SDS011;11286;45.596;5.284;2023-02-28T12:35:23;7.80;;;7.03;;
22234;SDS011;11286;45.596;5.284;2023-02-28T12:37:57;9.18;;;8.27;;
22234;SDS011;11286;45.596;5.284;2023-02-28T12:40:32;8.52;;;7.38;;
22234;SDS011;11286;45.596;5.284;2023-02-28T12:43:11;10.63;;;9.55;;
22234;SDS011;11286;45.596;5.284;2023-02-28T12:45:46;7.85;;;6.97;;
22234;SDS011;11286;45.596;5.284;2023-02-28T12:48:27;8.25;;;7.40;;
22234;SDS011;11286;45.596;5.284;2023-02-28T12:50:58;9.43;;;7.90;;
22234;SDS011;11286;45.596;5.284;2023-02-28T12:53:35;9.30;;;7.65;;
22234;SDS011;11286;45.596;5.284;2023-02-28T12:57:07;8.77;;;7.90;;
22234;SDS011;11286;45.596;5.284;2023-02-28T12:59:50;7.88;;;7.18;;
22234;SDS011;11286;45.596;5.284;2023-02-28T13:08:03;11.15;;;8.15;;
22234;SDS011;11286;45.596;5.284;2023-02-28T13:10:50;9.00;;;8.10;;
22234;SDS011;11286;45.596;5.284;2023-02-28T13:13:26;9.05;;;8.10;;
22234;SDS011;11286;45.596;5.284;2023-02-28T13:16:14;9.50;;;8.00;;
22234;SDS011;11286;45.596;5.284;2023-02-28T13:18:41;9.88;;;8.40;;
22234;SDS011;11286;45.596;5.284;2023-02-28T13:21:10;10.45;;;8.85;;
22234;SDS011;11286;45.596;5.284;2023-02-28T13:26:21;8.68;;;7.88;;
22234;SDS011;11286;45.596;5.284;2023-02-28T13:31:22;8.88;;;7.97;;
22234;SDS011;11286;45.596;5.284;2023-02-28T13:38:55;8.65;;;7.70;;
22234;SDS011;11286;45.596;5.284;2023-02-28T14:05:39;9.30;;;8.40;;
22234;SDS011;11286;45.596;5.284;2023-02-28T14:08:08;9.68;;;8.57;;
22234;SDS011;11286;45.596;5.284;2023-02-28T14:10:43;9.35;;;8.45;;
22234;SDS011;11286;45.596;5.284;2023-02-28T14:13:12;11.60;;;9.60;;
22234;SDS011;11286;45.596;5.284;2023-02-28T14:16:01;9.50;;;8.60;;
22234;SDS011;11286;45.596;5.284;2023-02-28T14:18:32;9.65;;;8.70;;
22234;SDS011;11286;45.596;5.284;2023-02-28T14:24:01;10.32;;;9.43;;
22234;SDS011;11286;45.596;5.284;2023-02-28T14:32:10;9.48;;;8.60;;
22234;SDS011;11286;45.596;5.284;2023-02-28T14:37:47;13.73;;;9.38;;
22234;SDS011;11286;45.596;5.284;2023-02-28T14:40:27;10.02;;;9.10;;
22234;SDS011;11286;45.596;5.284;2023-02-28T14:42:58;10.50;;;9.40;;
22234;SDS011;11286;45.596;5.284;2023-02-28T14:45:27;10.27;;;9.20;;
22234;SDS011;11286;45.596;5.284;2023-02-28T14:47:55;9.70;;;8.80;;
22234;SDS011;11286;45.596;5.284;2023-02-28T14:50:34;9.88;;;8.88;;
22234;SDS011;11286;45.596;5.284;2023-02-28T14:53:02;10.10;;;9.10;;
22234;SDS011;11286;45.596;5.284;2023-02-28T14:55:30;10.75;;;9.65;;
22234;SDS011;11286;45.596;5.284;2023-02-28T14:58:01;11.00;;;9.90;;
22234;SDS011;11286;45.596;5.284;2023-02-28T15:00:33;10.15;;;9.15;;
22234;SDS011;11286;45.596;5.284;2023-02-28T15:03:13;11.93;;;9.80;;
22234;SDS011;11286;45.596;5.284;2023-02-28T15:05:51;10.10;;;9.15;;
22234;SDS011;11286;45.596;5.284;2023-02-28T15:08:18;10.07;;;9.07;;
22234;SDS011;11286;45.596;5.284;2023-02-28T15:10:58;9.90;;;8.80;;
22234;SDS011;11286;45.596;5.284;2023-02-28T15:13:29;10.07;;;9.07;;
22234;SDS011;11286;45.596;5.284;2023-02-28T15:16:01;10.52;;;9.50;;
22234;SDS011;11286;45.596;5.284;2023-02-28T15:18:46;10.02;;;9.02;;
22234;SDS011;11286;45.596;5.284;2023-02-28T15:24:00;9.77;;;8.82;;
22234;SDS011;11286;45.596;5.284;2023-02-28T15:26:32;11.13;;;10.05;;
22234;SDS011;11286;45.596;5.284;2023-02-28T15:29:01;11.32;;;10.13;;
22234;SDS011;11286;45.596;5.284;2023-02-28T15:31:33;9.93;;;8.93;;
22234;SDS011;11286;45.596;5.284;2023-02-28T15:34:04;11.95;;;10.07;;
22234;SDS011;11286;45.596;5.284;2023-02-28T15:36:32;11.57;;;10.10;;
22234;SDS011;11286;45.596;5.284;2023-02-28T15:39:02;10.85;;;9.80;;
22234;SDS011;11286;45.596;5.284;2023-02-28T15:41:43;14.18;;;12.35;;
22234;SDS011;11286;45.596;5.284;2023-02-28T15:47:04;11.65;;;10.20;;
22234;SDS011;11286;45.596;5.284;2023-02-28T15:49:44;11.02;;;9.95;;
22234;SDS011;11286;45.596;5.284;2023-02-28T15:52:55;10.80;;;9.70;;
22234;SDS011;11286;45.596;5.284;2023-02-28T15:55:15;11.25;;;10.18;;
22234;SDS011;11286;45.596;5.284;2023-02-28T15:57:44;10.88;;;9.85;;
22234;SDS011;11286;45.596;5.284;2023-02-28T16:00:14;10.80;;;9.65;;
22234;SDS011;11286;45.596;5.284;2023-02-28T16:02:43;11.63;;;10.43;;
22234;SDS011;11286;45.596;5.284;2023-02-28T16:07:35;11.75;;;10.20;;
22234;SDS011;11286;45.596;5.284;2023-02-28T16:10:05;11.63;;;10.25;;
22234;SDS011;11286;45.596;5.284;2023-02-28T16:12:34;11.52;;;10.32;;
22234;SDS011;11286;45.596;5.284;2023-02-28T16:15:03;11.10;;;9.73;;
22234;SDS011;11286;45.596;5.284;2023-02-28T16:17:33;11.38;;;10.15;;
22234;SDS011;11286;45.596;5.284;2023-02-28T16:20:05;12.65;;;10.25;;
22234;SDS011;11286;45.596;5.284;2023-02-28T16:23:00;10.63;;;9.52;;
22234;SDS011;11286;45.596;5.284;2023-02-28T16:25:37;12.85;;;10.57;;
22234;SDS011;11286;45.596;5.284;2023-02-28T16:28:12;12.43;;;10.48;;
22234;SDS011;11286;45.596;5.284;2023-02-28T16:30:45;11.07;;;9.98;;
22234;SDS011;11286;45.596;5.284;2023-02-28T16:33:11;18.83;;;15.07;;
22234;SDS011;11286;45.596;5.284;2023-02-28T16:35:36;12.35;;;11.00;;
22234;SDS011;11286;45.596;5.284;2023-02-28T16:38:02;12.48;;;10.10;;
22234;SDS011;11286;45.596;5.284;2023-02-28T16:40:28;11.70;;;10.30;;
22234;SDS011;11286;45.596;5.284;2023-02-28T16:42:58;13.05;;;10.73;;
22234;SDS011;11286;45.596;5.284;2023-02-28T16:45:26;12.30;;;10.85;;
22234;SDS011;11286;45.596;5.284;2023-02-28T16:47:53;12.10;;;10.85;;
22234;SDS011;11286;45.596;5.284;2023-02-28T16:50:21;13.05;;;10.93;;
22234;SDS011;11286;45.596;5.284;2023-02-28T16:52:48;20.10;;;16.75;;
22234;SDS011;11286;45.596;5.284;2023-02-28T16:55:14;13.05;;;11.68;;
22234;SDS011;11286;45.596;5.284;2023-02-28T16:57:40;11.73;;;10.38;;
22234;SDS011;11286;45.596;5.284;2023-02-28T17:00:08;17.05;;;13.55;;
22234;SDS011;11286;45.596;5.284;2023-02-28T17:02:37;13.02;;;11.27;;
22234;SDS011;11286;45.596;5.284;2023-02-28T17:05:03;19.08;;;16.02;;
22234;SDS011;11286;45.596;5.284;2023-02-28T17:07:29;12.90;;;10.40;;
22234;SDS011;11286;45.596;5.284;2023-02-28T17:09:55;11.57;;;10.48;;
22234;SDS011;11286;45.596;5.284;2023-02-28T17:12:21;10.75;;;9.68;;
22234;SDS011;11286;45.596;5.284;2023-02-28T17:14:46;12.73;;;10.88;;
22234;SDS011;11286;45.596;5.284;2023-02-28T17:17:20;12.43;;;10.13;;
22234;SDS011;11286;45.596;5.284;2023-02-28T17:19:47;11.73;;;10.50;;
22234;SDS011;11286;45.596;5.284;2023-02-28T17:22:12;12.82;;;11.48;;
22234;SDS011;11286;45.596;5.284;2023-02-28T17:24:38;13.73;;;10.10;;
22234;SDS011;11286;45.596;5.284;2023-02-28T17:27:04;13.68;;;11.30;;
22234;SDS011;11286;45.596;5.284;2023-02-28T17:29:30;11.73;;;10.07;;
22234;SDS011;11286;45.596;5.284;2023-02-28T17:31:56;12.10;;;10.43;;
22234;SDS011;11286;45.596;5.284;2023-02-28T17:34:21;14.02;;;10.93;;
22234;SDS011;11286;45.596;5.284;2023-02-28T17:36:48;14.40;;;11.20;;
22234;SDS011;11286;45.596;5.284;2023-02-28T17:39:15;13.30;;;10.75;;
22234;SDS011;11286;45.596;5.284;2023-02-28T17:41:49;12.43;;;10.23;;
22234;SDS011;11286;45.596;5.284;2023-02-28T17:44:19;12.95;;;11.18;;